Time;durP1;ratioP1;P1;durP2;ratioP2;P2;SDS_P1;SDS_P2;PMS_P1;PMS_P2;Temp;Humidity;BMP_temperature;BMP_pressure;BME280_temperature;BME280_humidity;BME280_pressure;Samples;Min_cycle;Max_cycle;Signal;HPM_P1;HPM_P2
2022/07/05 00:02:13;;;;;;;1.58;0.73;;;;;;;21.59;52.43;99781.31;5011657;28;20431;-90
2022/07/05 00:04:39;;;;;;;2.30;1.10;;;;;;;21.46;52.99;99748.94;5029055;28;20075;-91
2022/07/05 00:07:19;;;;;;;1.38;0.65;;;;;;;21.50;52.52;99755.00;5028165;28;20029;-90
2022/07/05 00:09:49;;;;;;;2.30;0.98;;;;;;;21.68;52.26;99798.69;5028602;28;20045;-90
2022/07/05 00:12:15;;;;;;;4.15;1.38;;;;;;;21.60;52.85;99782.19;5010715;28;20060;-89
2022/07/05 00:14:42;;;;;;;0.73;0.50;;;;;;;21.49;52.47;99772.09;5038070;28;20574;-89
2022/07/05 00:17:08;;;;;;;0.82;0.77;;;;;;;21.60;52.47;99798.28;5030615;28;20036;-90
2022/07/05 00:19:35;;;;;;;1.75;0.80;;;;;;;21.44;52.06;99761.59;5029832;28;20051;-90
2022/07/05 00:22:00;;;;;;;3.35;0.98;;;;;;;21.37;52.40;99757.53;5047919;28;20041;-90
2022/07/05 00:24:26;;;;;;;1.63;1.08;;;;;;;21.30;52.79;99737.38;5048027;28;20033;-90
2022/07/05 00:26:51;;;;;;;6.95;1.40;;;;;;;21.32;53.41;99761.44;5045511;28;20083;-90
2022/07/05 00:29:17;;;;;;;1.48;1.35;;;;;;;21.24;53.47;99754.72;5026442;28;20044;-90
2022/07/05 00:31:43;;;;;;;1.67;0.98;;;;;;;21.41;53.21;99793.97;5028512;28;20146;-90
2022/07/05 00:34:09;;;;;;;0.85;0.60;;;;;;;21.25;53.48;99759.09;5011247;28;20041;-88
2022/07/05 00:36:34;;;;;;;2.55;1.15;;;;;;;21.43;53.23;99780.47;5027543;28;20073;-88
2022/07/05 00:39:00;;;;;;;0.50;0.50;;;;;;;21.26;52.83;99768.03;5038122;28;20063;-89
2022/07/05 00:41:25;;;;;;;1.52;0.80;;;;;;;21.25;53.76;99759.09;5035401;28;20422;-89
2022/07/05 00:43:59;;;;;;;1.40;0.85;;;;;;;21.21;53.20;99744.16;5047902;28;20067;-89
2022/07/05 00:46:26;;;;;;;1.23;0.95;;;;;;;21.13;53.27;99749.09;5047345;28;20029;-88
2022/07/05 00:48:51;;;;;;;1.95;1.02;;;;;;;21.20;53.13;99763.88;5040045;28;20048;-87
2022/07/05 00:51:17;;;;;;;1.55;1.02;;;;;;;20.93;53.39;99715.41;5030478;28;20025;-90
2022/07/05 00:53:43;;;;;;;1.17;0.88;;;;;;;21.09;53.44;99745.72;5047682;28;20522;-91
2022/07/05 00:56:10;;;;;;;2.42;1.50;;;;;;;20.88;53.46;99715.69;5048048;28;20098;-88
2022/07/05 00:58:36;;;;;;;1.30;0.80;;;;;;;21.28;52.90;99771.50;5043892;28;20048;-89
2022/07/05 01:01:04;;;;;;;1.38;0.90;;;;;;;20.67;52.96;99725.78;5048435;28;20036;-91
2022/07/05 01:03:30;;;;;;;2.20;1.27;;;;;;;20.62;51.86;99730.53;5030098;28;20040;-89
2022/07/05 01:05:56;;;;;;;3.10;1.13;;;;;;;20.73;52.42;99746.03;5048347;28;20045;-87
2022/07/05 01:08:23;;;;;;;1.08;0.93;;;;;;;20.73;52.06;99748.72;5048075;28;20033;-89
2022/07/05 01:10:52;;;;;;;1.63;0.90;;;;;;;21.00;53.09;99762.34;5047974;28;20487;-88
2022/07/05 01:13:17;;;;;;;0.63;0.63;;;;;;;21.03;52.21;99756.81;5047526;28;20025;-91
2022/07/05 01:15:43;;;;;;;1.77;1.13;;;;;;;20.89;51.78;99738.84;5030078;28;20053;-91
2022/07/05 01:18:10;;;;;;;1.67;1.30;;;;;;;20.56;53.50;99707.59;5028785;28;20041;-89
2022/07/05 01:20:36;;;;;;;1.90;1.23;;;;;;;20.65;53.82;99735.75;5047468;28;20120;-89
2022/07/05 01:23:02;;;;;;;2.15;1.48;;;;;;;20.85;53.45;99749.81;5048055;28;20029;-88
2022/07/05 01:25:29;;;;;;;1.52;0.93;;;;;;;20.71;53.74;99739.88;5028909;28;20060;-89
2022/07/05 01:27:57;;;;;;;0.65;0.63;;;;;;;20.70;53.45;99727.44;5030249;28;20037;-89
2022/07/05 01:30:23;;;;;;;1.52;1.42;;;;;;;20.84;53.33;99756.16;5047219;28;20495;-88
2022/07/05 01:32:49;;;;;;;2.42;1.40;;;;;;;20.73;53.21;99738.84;5047831;28;20052;-91
2022/07/05 01:35:23;;;;;;;2.60;1.15;;;;;;;20.53;53.84;99726.53;5029651;28;20033;-90
2022/07/05 01:37:49;;;;;;;1.45;0.90;;;;;;;20.73;53.47;99748.72;5029581;28;20182;-89
2022/07/05 01:40:15;;;;;;;2.67;1.48;;;;;;;20.50;53.65;99713.31;5028705;28;20090;-90
2022/07/05 01:42:41;;;;;;;1.60;1.40;;;;;;;20.48;54.44;99720.59;5046941;28;20029;-89
2022/07/05 01:45:07;;;;;;;2.45;1.60;;;;;;;20.73;54.41;99741.53;5047303;28;20119;-89
2022/07/05 01:47:36;;;;;;;2.30;1.30;;;;;;;20.40;54.71;99709.41;5046615;28;20132;-89
2022/07/05 01:50:04;;;;;;;1.40;1.00;;;;;;;20.38;55.20;99701.44;5027820;28;20404;-91
2022/07/05 01:52:31;;;;;;;1.50;0.93;;;;;;;20.70;55.04;99716.72;5045687;28;20037;-90
2022/07/05 01:55:01;;;;;;;1.48;1.38;;;;;;;20.70;55.29;99708.69;5028416;28;20033;-91
2022/07/05 01:57:27;;;;;;;6.30;1.70;;;;;;;20.68;55.69;99722.19;5019599;28;20033;-93
2022/07/05 01:59:53;;;;;;;1.60;0.95;;;;;;;20.68;54.90;99716.81;5022425;28;20112;-92
2022/07/05 02:02:18;;;;;;;1.40;0.80;;;;;;;20.66;55.24;99723.19;5027828;28;20479;-88
2022/07/05 02:04:44;;;;;;;1.83;0.90;;;;;;;20.49;55.88;99729.47;5028711;28;20482;-90
2022/07/05 02:07:09;;;;;;;1.95;1.05;;;;;;;20.53;56.39;99761.38;5046785;28;20036;-88
2022/07/05 02:09:35;;;;;;;1.83;1.17;;;;;;;20.30;56.01;99724.28;5046169;28;20578;-90
2022/07/05 02:12:03;;;;;;;1.95;1.20;;;;;;;20.55;56.37;99763.97;5045767;28;20435;-89
2022/07/05 02:14:28;;;;;;;2.35;1.23;;;;;;;20.46;56.91;99738.53;5046040;28;20516;-88
2022/07/05 02:16:54;;;;;;;1.77;1.23;;;;;;;20.33;57.08;99737.50;5046285;28;20048;-92
2022/07/05 02:19:19;;;;;;;1.88;1.13;;;;;;;20.10;56.88;99773.56;5027730;28;20029;-90
2022/07/05 02:21:44;;;;;;;1.33;1.00;;;;;;;19.78;58.52;99754.69;5028050;28;20116;-89
2022/07/05 02:24:10;;;;;;;1.90;0.93;;;;;;;19.88;58.27;99750.59;5045123;28;20047;-89
2022/07/05 02:26:35;;;;;;;2.30;1.30;;;;;;;20.03;58.15;99781.03;5028699;28;20043;-88
2022/07/05 02:29:03;;;;;;;1.15;0.68;;;;;;;19.91;57.95;99747.75;5045963;28;20021;-87
2022/07/05 02:31:28;;;;;;;2.63;1.20;;;;;;;19.85;59.37;99788.22;5040709;28;20033;-88
2022/07/05 02:33:54;;;;;;;1.30;1.10;;;;;;;19.85;58.81;99777.53;5039972;28;20094;-89
2022/07/05 02:36:19;;;;;;;2.15;1.52;;;;;;;19.61;59.79;99740.34;5027531;28;20045;-88
2022/07/05 02:38:45;;;;;;;2.58;1.17;;;;;;;19.57;59.81;99783.38;5027576;28;20114;-89
2022/07/05 02:41:12;;;;;;;1.45;0.95;;;;;;;19.48;60.20;99766.84;5027667;28;20056;-91
2022/07/05 02:43:38;;;;;;;1.15;1.05;;;;;;;19.07;60.66;99710.97;5046227;28;20064;-90
2022/07/05 02:46:05;;;;;;;1.52;0.90;;;;;;;19.40;60.20;99747.66;5028195;28;20064;-89
2022/07/05 02:48:31;;;;;;;2.13;1.50;;;;;;;19.42;60.78;99775.19;5028032;28;20451;-89
2022/07/05 02:50:57;;;;;;;1.63;1.02;;;;;;;19.53;60.82;99801.41;5027149;28;20580;-88
2022/07/05 02:53:23;;;;;;;1.60;1.05;;;;;;;19.32;61.04;99742.72;5045552;28;20029;-87
2022/07/05 02:55:49;;;;;;;1.45;1.17;;;;;;;19.25;60.84;99738.59;5046396;28;20036;-88
2022/07/05 02:58:16;;;;;;;2.28;1.40;;;;;;;19.47;60.15;99758.91;5045949;28;20035;-89
2022/07/05 03:00:42;;;;;;;2.15;1.55;;;;;;;19.61;60.02;99760.88;5027055;28;20431;-89
2022/07/05 03:03:08;;;;;;;3.03;1.92;;;;;;;19.85;59.93;99804.28;5045421;28;20060;-90
2022/07/05 03:05:33;;;;;;;3.22;1.40;;;;;;;19.55;60.15;99755.84;5045739;28;20071;-87
2022/07/05 03:07:59;;;;;;;8.60;1.77;;;;;;;19.67;60.00;99769.44;5044637;28;20059;-89
2022/07/05 03:10:25;;;;;;;1.23;0.90;;;;;;;19.69;59.57;99772.03;5045556;28;20033;-87
2022/07/05 03:12:51;;;;;;;2.13;1.05;;;;;;;19.62;59.56;99760.81;5046926;28;20116;-88
2022/07/05 03:15:16;;;;;;;2.38;1.10;;;;;;;19.75;59.38;99785.13;5046584;28;20057;-85
2022/07/05 03:17:42;;;;;;;1.42;1.13;;;;;;;19.85;59.73;99804.28;5047425;28;20044;-88
2022/07/05 03:20:08;;;;;;;1.38;0.80;;;;;;;19.68;59.48;99770.34;5046077;28;20429;-88
2022/07/05 03:22:34;;;;;;;3.47;2.15;;;;;;;19.63;60.22;99761.66;5046564;28;20029;-85
2022/07/05 03:25:00;;;;;;;2.08;1.40;;;;;;;19.76;60.52;99810.94;5046470;28;20489;-91
2022/07/05 03:27:25;;;;;;;2.20;1.10;;;;;;;19.57;60.29;99759.31;5045855;28;20033;-86
2022/07/05 03:29:51;;;;;;;2.97;1.80;;;;;;;19.74;59.91;99788.75;5045360;28;20509;-85
2022/07/05 03:32:16;;;;;;;2.40;1.33;;;;;;;19.51;60.30;99757.81;5045743;28;20476;-89
2022/07/05 03:34:42;;;;;;;1.73;1.15;;;;;;;19.56;60.14;99749.56;5045525;28;20037;-90
2022/07/05 03:37:07;;;;;;;1.15;1.05;;;;;;;19.64;61.08;99785.66;5026752;28;20414;-88
2022/07/05 03:39:33;;;;;;;2.28;1.55;;;;;;;19.52;61.13;99772.06;5045385;28;20044;-88
2022/07/05 03:41:58;;;;;;;1.52;1.17;;;;;;;19.66;61.41;99778.44;5046163;28;20040;-89
2022/07/05 03:44:24;;;;;;;2.60;1.92;;;;;;;19.75;61.95;99778.91;5045244;28;20414;-88
2022/07/05 03:46:49;;;;;;;5.68;1.70;;;;;;;19.83;62.17;99785.63;5044781;28;20112;-85
2022/07/05 03:49:15;;;;;;;4.35;2.53;;;;;;;19.82;61.57;99757.13;5045592;28;20475;-87
2022/07/05 03:51:40;;;;;;;3.00;1.70;;;;;;;20.10;61.56;99760.16;5045746;28;20025;-85
2022/07/05 03:54:06;;;;;;;2.78;1.40;;;;;;;20.39;60.66;99772.00;5045700;28;20125;-85
2022/07/05 03:56:31;;;;;;;2.65;1.52;;;;;;;20.37;59.60;99755.13;5045561;28;20033;-85
2022/07/05 03:58:57;;;;;;;3.95;2.28;;;;;;;20.43;60.01;99752.09;5029243;28;20087;-85
2022/07/05 04:01:22;;;;;;;3.70;1.90;;;;;;;20.70;60.00;99764.97;5027577;28;20785;-86
2022/07/05 04:03:48;;;;;;;2.67;1.35;;;;;;;20.81;59.48;99772.41;5029746;28;20124;-85
2022/07/05 04:06:14;;;;;;;2.03;1.40;;;;;;;20.70;59.68;99764.97;5035530;28;20112;-84
2022/07/05 04:08:39;;;;;;;3.38;2.08;;;;;;;20.94;58.97;99784.16;5048105;28;20537;-86
2022/07/05 04:11:05;;;;;;;3.25;1.83;;;;;;;21.04;59.38;99782.69;5048871;28;20542;-84
2022/07/05 04:13:31;;;;;;;2.65;1.40;;;;;;;21.27;59.06;99783.16;5048726;28;20068;-86
2022/07/05 04:15:56;;;;;;;3.45;2.03;;;;;;;21.47;58.08;99768.59;5047955;28;20881;-86
2022/07/05 04:18:22;;;;;;;5.57;2.67;;;;;;;21.66;57.92;99780.94;5048718;28;20415;-86
2022/07/05 04:20:48;;;;;;;3.05;1.92;;;;;;;21.85;58.09;99759.25;5047651;28;20025;-85
2022/07/05 04:23:13;;;;;;;2.55;1.75;;;;;;;22.02;58.13;99764.44;5031081;28;20561;-86
2022/07/05 04:25:39;;;;;;;2.80;1.45;;;;;;;22.02;57.43;99725.97;5049045;28;20041;-86
2022/07/05 04:28:05;;;;;;;2.95;1.70;;;;;;;22.50;56.04;99772.25;5048760;28;20075;-85
2022/07/05 04:30:30;;;;;;;3.22;2.22;;;;;;;22.61;54.16;99777.78;5048999;28;20470;-87
2022/07/05 04:32:57;;;;;;;3.60;1.80;;;;;;;22.05;53.92;99732.00;5049172;28;20051;-85
2022/07/05 04:35:23;;;;;;;3.13;1.88;;;;;;;22.40;55.08;99749.59;5047810;28;20483;-86
2022/07/05 04:37:49;;;;;;;13.77;2.17;;;;;;;22.31;53.59;99729.56;5047713;28;20037;-85
2022/07/05 04:40:15;;;;;;;3.38;1.50;;;;;;;22.38;53.87;99752.38;5047693;28;20036;-86
2022/07/05 04:42:41;;;;;;;3.83;2.30;;;;;;;22.62;53.29;99784.06;5048702;28;20060;-84
2022/07/05 04:45:08;;;;;;;4.15;2.25;;;;;;;22.45;53.51;99731.38;5048027;28;20043;-85
2022/07/05 04:47:36;;;;;;;3.55;2.13;;;;;;;22.89;52.30;99743.75;5037926;28;20033;-84
2022/07/05 04:50:04;;;;;;;4.72;2.42;;;;;;;23.09;51.23;99720.94;5047159;28;20415;-85
2022/07/05 04:52:29;;;;;;;7.10;2.88;;;;;;;23.37;50.57;99741.50;5048476;28;20114;-84
2022/07/05 04:54:55;;;;;;;2.45;1.77;;;;;;;23.17;50.85;99729.38;5048433;28;20126;-83
2022/07/05 04:57:20;;;;;;;5.30;2.63;;;;;;;23.56;50.78;99762.63;5047687;28;20037;-85
2022/07/05 04:59:46;;;;;;;1.95;1.35;;;;;;;23.57;49.76;99742.84;5048214;28;20033;-83
2022/07/05 05:02:11;;;;;;;2.33;1.52;;;;;;;24.05;49.29;99771.03;5046092;28;20115;-83
2022/07/05 05:04:37;;;;;;;2.28;1.70;;;;;;;24.04;50.35;99751.31;5047712;28;20508;-84
2022/07/05 05:07:03;;;;;;;5.28;1.98;;;;;;;24.09;49.64;99732.97;5031372;28;20032;-86
2022/07/05 05:09:28;;;;;;;2.35;1.77;;;;;;;23.93;49.23;99716.19;5048105;28;20461;-83
2022/07/05 05:11:54;;;;;;;2.10;1.45;;;;;;;23.94;49.06;99739.44;5047685;28;20047;-85
2022/07/05 05:14:19;;;;;;;2.38;1.48;;;;;;;24.67;47.86;99767.56;5029505;28;20084;-85
2022/07/05 05:16:45;;;;;;;5.07;1.98;;;;;;;24.57;48.48;99758.38;5030249;28;20442;-84
2022/07/05 05:19:10;;;;;;;3.95;3.05;;;;;;;24.58;47.81;99752.06;5048268;28;20040;-85
2022/07/05 05:21:36;;;;;;;1.83;1.42;;;;;;;24.12;47.33;99743.53;5048391;28;20114;-84
2022/07/05 05:24:01;;;;;;;2.72;1.73;;;;;;;24.17;49.39;99747.75;5048745;28;20230;-84
2022/07/05 05:26:27;;;;;;;2.28;1.17;;;;;;;24.53;47.81;99779.31;5048555;28;20033;-84
2022/07/05 05:28:53;;;;;;;2.80;1.75;;;;;;;24.59;47.86;99799.59;5048530;28;20040;-84
2022/07/05 05:31:18;;;;;;;3.42;2.40;;;;;;;24.98;45.89;99792.28;5030663;28;20033;-85
2022/07/05 05:33:45;;;;;;;3.70;1.70;;;;;;;25.46;45.14;99796.88;5047954;28;20060;-84
2022/07/05 05:36:11;;;;;;;2.80;2.15;;;;;;;25.43;44.07;99780.91;5048069;28;20086;-84
2022/07/05 05:38:36;;;;;;;1.88;1.17;;;;;;;24.86;45.84;99758.97;5048369;28;20037;-85
2022/07/05 05:41:02;;;;;;;3.20;1.50;;;;;;;25.47;45.38;99750.88;5048232;28;20036;-84
2022/07/05 05:43:27;;;;;;;2.90;1.92;;;;;;;25.67;44.63;99772.75;5048198;28;20032;-84
2022/07/05 05:45:53;;;;;;;1.80;1.48;;;;;;;24.90;44.86;99740.72;5047961;28;20028;-84
2022/07/05 05:48:19;;;;;;;2.85;1.58;;;;;;;24.66;47.70;99737.00;5047776;28;20036;-84
2022/07/05 05:50:46;;;;;;;3.15;1.50;;;;;;;24.65;45.54;99734.44;5048314;28;20060;-84
2022/07/05 05:53:12;;;;;;;4.90;2.17;;;;;;;25.21;45.81;99798.69;5048148;28;20037;-85
2022/07/05 05:55:38;;;;;;;4.43;2.15;;;;;;;24.72;45.60;99768.06;5048024;28;20041;-84
2022/07/05 05:58:18;;;;;;;2.92;2.00;;;;;;;24.59;46.33;99773.50;5047930;28;20037;-84
2022/07/05 06:00:48;;;;;;;4.63;1.80;;;;;;;25.18;45.79;99780.88;5047470;28;20033;-84
2022/07/05 06:03:14;;;;;;;2.22;1.40;;;;;;;24.99;47.79;99758.91;5048002;28;20029;-84
2022/07/05 06:05:39;;;;;;;6.10;2.72;;;;;;;25.76;45.30;99760.38;5047647;28;20127;-84
2022/07/05 06:08:05;;;;;;;1.85;1.15;;;;;;;26.25;44.70;99773.66;5046213;28;20029;-86
2022/07/05 06:10:32;;;;;;;2.33;1.50;;;;;;;25.78;45.01;99767.41;5047732;28;20060;-85
2022/07/05 06:13:00;;;;;;;3.33;2.00;;;;;;;26.07;44.80;99803.00;5048127;28;20035;-84
2022/07/05 06:15:27;;;;;;;4.07;2.10;;;;;;;25.61;46.12;99770.53;5042415;28;20123;-85
2022/07/05 06:17:52;;;;;;;5.03;1.98;;;;;;;25.85;46.30;99746.16;5027532;28;20031;-85
2022/07/05 06:20:25;;;;;;;3.00;1.90;;;;;;;26.15;44.57;99780.78;5026267;28;20095;-86
2022/07/05 06:22:52;;;;;;;3.58;1.48;;;;;;;26.09;44.03;99776.72;5027321;28;20033;-85
2022/07/05 06:25:17;;;;;;;2.38;1.60;;;;;;;26.37;45.38;99757.41;5026366;28;20112;-85
2022/07/05 06:27:45;;;;;;;2.25;1.40;;;;;;;26.66;43.81;99771.31;5026805;28;20135;-85
2022/07/05 06:30:14;;;;;;;2.28;1.63;;;;;;;26.96;42.88;99759.84;5027499;28;20030;-85
2022/07/05 06:32:40;;;;;;;3.45;1.77;;;;;;;26.75;44.50;99750.78;5018554;28;20046;-84
2022/07/05 06:35:07;;;;;;;3.55;2.33;;;;;;;27.26;43.93;99754.72;5007382;28;20029;-86
2022/07/05 06:37:48;;;;;;;2.60;2.05;;;;;;;27.69;43.04;99762.78;5006972;28;20037;-85
2022/07/05 06:40:25;;;;;;;4.07;2.22;;;;;;;27.71;41.36;99732.84;5007303;28;20038;-85
2022/07/05 06:42:55;;;;;;;3.72;1.30;;;;;;;28.12;41.11;99755.53;5026217;28;20514;-85
2022/07/05 06:45:20;;;;;;;3.05;1.67;;;;;;;27.90;39.89;99732.16;5026831;28;20491;-85
2022/07/05 06:47:57;;;;;;;1.77;1.35;;;;;;;27.88;40.15;99753.06;5027308;28;20026;-84
2022/07/05 06:50:24;;;;;;;2.30;1.52;;;;;;;28.25;39.86;99749.88;5027394;28;20504;-85
2022/07/05 06:52:49;;;;;;;2.20;1.45;;;;;;;28.49;39.32;99733.31;5027030;28;20029;-85
2022/07/05 06:55:15;;;;;;;2.00;1.05;;;;;;;28.74;42.26;99714.84;5026888;28;20087;-85
2022/07/05 06:57:40;;;;;;;4.18;2.53;;;;;;;28.71;38.87;99726.81;5026885;28;20057;-86
2022/07/05 07:00:07;;;;;;;5.90;2.33;;;;;;;28.78;40.11;99729.84;5025660;28;20526;-85
2022/07/05 07:02:33;;;;;;;3.03;1.60;;;;;;;28.69;39.03;99717.13;5024605;28;20494;-86
2022/07/05 07:04:59;;;;;;;2.25;1.30;;;;;;;29.22;38.98;99699.63;5026253;28;20124;-85
2022/07/05 07:10:08;;;;;;;1.83;1.60;;;;;;;30.03;35.42;99712.84;5026126;28;20048;-85
2022/07/05 07:12:34;;;;;;;3.53;1.92;;;;;;;30.24;34.74;99730.81;5026099;28;20033;-86
2022/07/05 07:14:59;;;;;;;3.08;1.80;;;;;;;30.71;33.33;99703.53;5037046;28;20049;-85
2022/07/05 07:17:25;;;;;;;2.55;1.50;;;;;;;30.79;33.32;99730.00;5044863;28;20395;-85
2022/07/05 07:19:51;;;;;;;1.85;1.30;;;;;;;31.40;30.96;99699.31;5045620;28;20446;-85
2022/07/05 07:22:16;;;;;;;2.42;2.00;;;;;;;32.08;30.17;99700.47;5046408;28;20041;-85
2022/07/05 07:24:42;;;;;;;1.92;1.40;;;;;;;31.41;31.79;99709.19;5046309;28;20616;-85
2022/07/05 07:27:08;;;;;;;3.30;1.92;;;;;;;31.73;31.98;99683.22;5046208;28;20044;-85
2022/07/05 07:29:38;;;;;;;1.30;1.00;;;;;;;32.01;32.15;99713.06;5046510;28;20033;-85
2022/07/05 07:32:05;;;;;;;3.05;2.10;;;;;;;32.41;31.19;99694.34;5046037;28;20093;-85
2022/07/05 07:34:30;;;;;;;2.90;1.25;;;;;;;32.90;29.32;99689.06;5046209;28;20030;-85
2022/07/05 07:36:57;;;;;;;5.55;2.70;;;;;;;33.14;28.55;99712.00;5048958;28;20071;-85
2022/07/05 07:39:23;;;;;;;2.42;1.88;;;;;;;33.38;28.58;99719.38;5050266;28;20029;-86
2022/07/05 07:41:48;;;;;;;3.38;2.30;;;;;;;33.56;27.94;99711.00;5031308;28;20076;-86
2022/07/05 07:44:14;;;;;;;2.13;1.63;;;;;;;32.67;27.75;99658.78;5050443;28;20084;-85
2022/07/05 07:46:40;;;;;;;2.05;1.13;;;;;;;33.21;28.95;99693.91;5050096;28;20029;-85
2022/07/05 07:49:06;;;;;;;4.03;1.80;;;;;;;32.88;28.34;99712.13;5048339;28;20025;-85
2022/07/05 07:51:32;;;;;;;3.38;2.10;;;;;;;32.52;28.57;99683.16;5030262;28;20065;-85
2022/07/05 07:53:58;;;;;;;2.28;1.35;;;;;;;33.29;28.78;99721.25;5029760;28;20470;-86
2022/07/05 07:56:23;;;;;;;1.90;1.30;;;;;;;32.97;30.36;99711.13;5029694;28;20037;-85
2022/07/05 07:58:49;;;;;;;2.75;1.60;;;;;;;32.78;28.88;99717.69;5030342;28;20025;-86
2022/07/05 08:01:15;;;;;;;2.20;1.65;;;;;;;32.49;28.29;99687.03;5030352;28;20037;-85
2022/07/05 08:03:41;;;;;;;2.83;1.75;;;;;;;33.28;29.45;99711.34;5045452;28;20036;-86
2022/07/05 08:06:10;;;;;;;2.50;1.65;;;;;;;33.53;29.79;99730.47;5049982;28;20013;-85
2022/07/05 08:08:36;;;;;;;2.25;1.23;;;;;;;33.61;29.03;99724.16;5049775;28;20033;-86
2022/07/05 08:11:02;;;;;;;2.67;1.63;;;;;;;33.11;29.31;99734.19;5049745;28;20032;-86
2022/07/05 08:13:28;;;;;;;3.22;1.83;;;;;;;33.17;31.82;99706.19;5049644;28;20040;-85
2022/07/05 08:15:54;;;;;;;2.67;1.50;;;;;;;33.80;29.71;99721.09;5049521;28;20045;-85
2022/07/05 08:23:47;;;;;;;4.60;1.60;;;;;;;32.56;30.17;99724.59;5049749;28;20067;-85
2022/07/05 08:26:13;;;;;;;4.93;1.85;;;;;;;33.08;30.09;99696.28;5049700;28;20037;-85
2022/07/05 08:28:38;;;;;;;2.95;1.80;;;;;;;33.38;28.65;99708.44;5049193;28;20040;-85
2022/07/05 08:31:04;;;;;;;2.05;1.55;;;;;;;33.47;28.90;99687.44;5049139;28;20060;-86
2022/07/05 08:33:29;;;;;;;2.70;1.38;;;;;;;32.88;29.92;99728.50;5049182;28;20513;-86
2022/07/05 08:35:55;;;;;;;2.65;1.50;;;;;;;33.34;27.58;99705.19;5049443;28;20518;-85
2022/07/05 08:38:20;;;;;;;2.47;2.03;;;;;;;33.97;30.52;99716.47;5049439;28;20090;-86
2022/07/05 08:40:51;;;;;;;2.63;1.80;;;;;;;34.31;27.12;99704.41;5048992;28;20043;-86
2022/07/05 08:43:18;;;;;;;4.50;1.58;;;;;;;33.43;28.20;99688.78;5049176;28;20094;-85
2022/07/05 08:45:44;;;;;;;1.35;1.20;;;;;;;33.68;28.32;99706.06;5049591;28;20032;-85
2022/07/05 08:48:10;;;;;;;2.55;1.35;;;;;;;33.76;26.94;99705.22;5048352;28;20083;-85
2022/07/05 08:50:39;;;;;;;1.90;1.33;;;;;;;33.99;26.84;99686.19;5049183;28;20043;-86
2022/07/05 08:53:06;;;;;;;2.65;1.77;;;;;;;33.97;26.92;99716.47;5049013;28;20091;-85
2022/07/05 08:55:34;;;;;;;4.05;1.98;;;;;;;34.63;26.32;99709.91;5049116;28;20514;-86
2022/07/05 08:58:00;;;;;;;2.95;1.63;;;;;;;34.79;27.94;99707.97;5049017;28;20064;-86
2022/07/05 09:00:25;;;;;;;3.10;2.00;;;;;;;35.02;28.90;99687.09;5048713;28;20544;-86
2022/07/05 09:02:52;;;;;;;3.33;1.80;;;;;;;35.62;26.53;99689.06;5030335;28;20029;-86
2022/07/05 09:05:18;;;;;;;3.80;2.00;;;;;;;35.26;26.33;99658.69;5049268;28;20040;-86
2022/07/05 09:08:00;;;;;;;4.30;2.83;;;;;;;35.17;25.82;99677.06;5029282;28;20175;-85
2022/07/05 09:10:30;;;;;;;3.28;2.15;;;;;;;35.22;25.87;99666.41;5048796;28;20099;-85
2022/07/05 09:12:57;;;;;;;4.03;2.28;;;;;;;34.95;26.67;99685.09;5048776;28;20033;-85
2022/07/05 09:15:23;;;;;;;3.40;1.90;;;;;;;35.09;26.46;99671.66;5048030;28;20085;-85
2022/07/05 09:17:49;;;;;;;2.88;1.95;;;;;;;34.95;26.72;99651.38;5048386;28;20041;-85
2022/07/05 09:20:17;;;;;;;3.03;2.00;;;;;;;34.73;27.03;99675.78;5047655;28;20037;-86
2022/07/05 09:22:43;;;;;;;4.68;2.53;;;;;;;35.05;26.54;99684.88;5048369;28;20029;-84
2022/07/05 09:25:27;;;;;;;1.80;1.10;;;;;;;34.95;25.54;99671.41;5048176;28;20033;-84
2022/07/05 09:28:03;;;;;;;4.10;2.58;;;;;;;34.94;24.88;99668.84;5048496;28;20037;-84
2022/07/05 09:30:31;;;;;;;2.28;1.75;;;;;;;35.19;27.21;99665.91;5048253;28;20483;-85
2022/07/05 09:33:03;;;;;;;2.90;2.00;;;;;;;35.20;24.15;99653.91;5047957;28;20036;-83
2022/07/05 09:35:31;;;;;;;1.55;1.38;;;;;;;35.38;25.04;99664.59;5048024;28;20036;-84
2022/07/05 09:37:57;;;;;;;14.50;13.05;;;;;;;35.67;23.85;99661.06;5048303;28;20067;-86
2022/07/05 09:40:22;;;;;;;105.35;95.38;;;;;;;36.01;24.19;99644.09;5048060;28;20037;-86
2022/07/05 09:42:48;;;;;;;117.55;88.50;;;;;;;35.94;25.29;99634.06;5048182;28;20031;-85
2022/07/05 09:45:24;;;;;;;607.78;500.88;;;;;;;36.09;25.08;99626.66;5047861;28;20434;-85
2022/07/05 09:47:50;;;;;;;365.70;231.05;;;;;;;36.44;24.92;99650.78;5048021;28;20075;-85
2022/07/05 09:50:32;;;;;;;514.75;384.80;;;;;;;36.09;24.08;99645.88;5048221;28;20495;-85
2022/07/05 09:52:58;;;;;;;689.58;428.27;;;;;;;36.22;23.59;99628.72;5048189;28;20039;-84
2022/07/05 09:55:23;;;;;;;216.00;129.73;;;;;;;36.34;23.41;99626.38;5047769;28;20029;-84
2022/07/05 09:57:50;;;;;;;1999.90;999.90;;;;;;;36.45;23.25;99619.53;5048159;28;20029;-86
2022/07/05 10:00:20;;;;;;;419.58;305.23;;;;;;;36.94;26.14;99637.19;5047001;28;20033;-86
2022/07/05 10:02:50;;;;;;;6.22;4.40;;;;;;;37.01;22.36;99635.34;5029998;28;20274;-86
2022/07/05 10:05:24;;;;;;;2.53;1.70;;;;;;;36.59;24.79;99632.38;5047794;28;20028;-85
2022/07/05 10:07:50;;;;;;;1.90;1.08;;;;;;;36.19;24.30;99632.72;5047289;28;20047;-84
2022/07/05 10:10:23;;;;;;;1.83;1.40;;;;;;;36.31;25.34;99615.78;5047325;28;20061;-87
2022/07/05 10:12:51;;;;;;;2.17;1.38;;;;;;;36.60;25.49;99606.59;5046761;28;20028;-86
2022/07/05 10:15:22;;;;;;;2.00;1.10;;;;;;;36.37;25.20;99620.50;5046641;28;20122;-85
2022/07/05 10:18:00;;;;;;;3.90;2.58;;;;;;;36.06;26.29;99634.44;5027537;28;20034;-87
2022/07/05 10:20:42;;;;;;;2.05;1.23;;;;;;;35.81;25.16;99610.88;5027601;28;20033;-87
2022/07/05 10:23:13;;;;;;;2.35;1.27;;;;;;;36.10;23.53;99600.94;5025866;28;20021;-86
2022/07/05 10:25:49;;;;;;;2.38;1.75;;;;;;;36.06;24.66;99617.97;5040575;28;20049;-85
2022/07/05 10:28:19;;;;;;;2.55;1.42;;;;;;;35.94;23.98;99610.19;5047336;28;20029;-85
2022/07/05 10:30:46;;;;;;;1.55;1.25;;;;;;;35.25;24.47;99605.75;5047036;28;20033;-85
2022/07/05 10:33:16;;;;;;;1.75;1.00;;;;;;;35.67;24.95;99608.97;5046155;28;20024;-86
2022/07/05 10:35:45;;;;;;;2.00;1.38;;;;;;;35.39;24.43;99595.88;5047089;28;20028;-86
2022/07/05 10:38:12;;;;;;;3.22;1.70;;;;;;;35.60;23.44;99595.13;5047466;28;20075;-85
2022/07/05 10:40:40;;;;;;;2.33;1.27;;;;;;;35.67;24.06;99611.69;5047131;28;20047;-85
2022/07/05 10:43:07;;;;;;;2.30;1.30;;;;;;;36.19;24.27;99605.28;5029958;28;20204;-86
2022/07/05 10:45:39;;;;;;;1.23;1.00;;;;;;;36.09;24.99;99588.22;5027015;28;20033;-84
2022/07/05 10:48:18;;;;;;;1.77;1.20;;;;;;;36.34;22.49;99612.66;5026594;28;20033;-84
2022/07/05 10:50:59;;;;;;;2.30;1.30;;;;;;;36.60;23.68;99603.03;5032796;28;20029;-87
2022/07/05 10:53:36;;;;;;;2.95;1.40;;;;;;;36.45;22.98;99597.56;5044613;28;20029;-87
2022/07/05 10:56:05;;;;;;;2.67;1.95;;;;;;;36.53;23.15;99598.31;5046442;28;20037;-85
2022/07/05 10:58:36;;;;;;;1.45;1.10;;;;;;;36.16;24.10;99591.06;5046600;28;20041;-85
2022/07/05 11:01:19;;;;;;;2.50;1.73;;;;;;;36.27;25.92;99601.59;5047217;28;20076;-85
2022/07/05 11:03:52;;;;;;;1.77;1.17;;;;;;;35.32;26.33;99553.78;5047441;28;20064;-86
2022/07/05 11:06:26;;;;;;;2.28;1.33;;;;;;;35.62;26.49;99581.22;5046774;28;20271;-88
2022/07/05 11:09:02;;;;;;;3.67;2.08;;;;;;;35.89;24.76;99570.66;5028574;28;20415;-86
2022/07/05 11:11:33;;;;;;;1.73;1.20;;;;;;;36.07;24.88;99548.28;5046439;28;20033;-86
2022/07/05 11:14:01;;;;;;;1.40;1.17;;;;;;;36.06;24.86;99541.13;5028431;28;20056;-84
2022/07/05 11:16:36;;;;;;;2.72;1.40;;;;;;;36.44;24.79;99558.28;5045817;28;20041;-87
2022/07/05 11:19:20;;;;;;;2.60;1.60;;;;;;;36.06;24.74;99550.19;5044213;28;20083;-86
2022/07/05 11:22:03;;;;;;;2.22;1.45;;;;;;;36.05;25.96;99536.66;5028502;28;20560;-86
2022/07/05 11:24:31;;;;;;;2.50;1.65;;;;;;;36.07;25.73;99538.19;5028430;28;20526;-87
2022/07/05 11:26:59;;;;;;;3.20;1.75;;;;;;;35.75;25.31;99545.75;5046759;28;20056;-88
2022/07/05 11:29:50;;;;;;;2.33;1.35;;;;;;;36.06;27.22;99550.19;5028356;28;20037;-86
2022/07/05 11:32:29;;;;;;;2.13;1.45;;;;;;;35.82;26.39;99554.09;5046961;28;20454;-87
2022/07/05 11:35:11;;;;;;;1.80;1.17;;;;;;;35.57;25.19;99546.13;5046604;28;20139;-86
2022/07/05 11:38:00;;;;;;;3.35;1.52;;;;;;;36.24;25.61;99537.94;5046323;28;20040;-87
2022/07/05 11:40:28;;;;;;;2.45;1.67;;;;;;;36.26;25.37;99530.41;5040025;28;20037;-87
2022/07/05 11:42:53;;;;;;;2.55;1.63;;;;;;;36.12;25.81;99511.00;5028573;28;20475;-89